Flight Track Log - Related Links

Times and Time Zones

All times are in EDT time to prevent confusion due to time zone crossing. See the EJA328 flight status page for this flight to view local times or setup timezone preferences in your user account.

Time Position Orientation Groundspeed Altitude Reporting Facility
EDT Latitude Longitude Course Direction KTS MPH feet Rate Location/Type
Mon 03:38:02 PM 38.6732 -121.5972 151° Southeast 177 204 1,500  Level FlightAware ADS-B (KSAC)
Mon 03:38:25 PM 38.6588 -121.5803 134° Southeast 204 235 2,400 2,571 Climbing FlightAware ADS-B (KSAC)
Mon 03:39:05 PM 38.6310 -121.5424 133° Southeast 241 277 4,200 3,051 Climbing FlightAware ADS-B (KSAC)
Mon 03:39:24 PM 38.6159 -121.5218 132° Southeast 254 292 5,400 3,750 Climbing FlightAware ADS-B (KSAC)
Mon 03:39:45 PM 38.5993 -121.4986 132° Southeast 260 299 6,700 3,077 Climbing FlightAware ADS-B (KSAC)
Mon 03:40:03 PM 38.5844 -121.4778 132° Southeast 264 304 7,400 2,595 Climbing FlightAware ADS-B (KSAC)
Mon 03:40:22 PM 38.5675 -121.4540 132° Southeast 267 307 8,300 2,286 Climbing FlightAware ADS-B (KSAC)
Mon 03:40:45 PM 38.5493 -121.4285 132° Southeast 276 318 9,000 787 Climbing FlightAware ADS-B (KSAC)
Mon 03:41:23 PM 38.5161 -121.3816 132° Southeast 282 325 9,100 310 Climbing FlightAware ADS-B (KSAC)
Mon 03:41:43 PM 38.4983 -121.3568 132° Southeast 283 326 9,300 1,024 Climbing FlightAware ADS-B (KSAC)
Mon 03:42:04 PM 38.4797 -121.3309 132° Southeast 283 326 9,800 1,475 Climbing FlightAware ADS-B (KSAC)
Mon 03:42:44 PM 38.4443 -121.2812 132° Southeast 288 331 10,800 1,077 Climbing FlightAware ADS-B (KSAC)
Mon 03:43:22 PM 38.4066 -121.2284 132° Southeast 327 376 11,200 228 Climbing FlightAware ADS-B (KSAC)
Mon 03:44:03 PM 38.3638 -121.1683 132° Southeast 346 398 11,100  Descending FlightAware ADS-B (KSAC)
Mon 03:44:44 PM 38.3107 -121.1191 167° South 354 407 11,200  Climbing FlightAware ADS-B (KSAC)
Mon 03:45:45 PM 38.2109 -121.0963 168° South 357 411 11,100 -61 Descending FlightAware ADS-B (KSAC)
Mon 03:46:23 PM 38.1514 -121.0813 169° South 355 409 11,100  Level FlightAware ADS-B (KSAC)
Mon 03:47:04 PM 38.0858 -121.0657 169° South 354 407 11,100  Level FlightAware ADS-B (KSAC)
Mon 03:47:45 PM 38.0168 -121.0508 177° South 353 406 11,100 98 Level FlightAware ADS-B (KSAC)
Mon 03:48:05 PM 37.9918 -121.0576 203° Southwest 352 405 11,200  Climbing FlightAware ADS-B (KSAC)
Mon 03:48:43 PM 37.9318 -121.0976 205° Southwest 357 411 11,100 -77 Descending FlightAware ADS-B (KSAC)
Mon 03:49:23 PM 37.8695 -121.1341 204° Southwest 359 413 11,100  Level FlightAware ADS-B (KSAC)
Mon 03:50:04 PM 37.8105 -121.1687 205° Southwest 354 407 11,100 -367 Level FlightAware ADS-B (KSAC)
Mon 03:50:12 PM 37.7853 -121.1840 205° Southwest 351 404 10,800 -462 Descending FlightAware ADS-B
Mon 03:50:43 PM 37.7401 -121.2100 205° Southwest 350 403 10,800 545 Level FlightAware ADS-B
Mon 03:50:45 PM 37.7475 -121.2060 205° Southwest 349 402 11,100 545 Climbing FlightAware ADS-B (KSAC)
Mon 03:51:16 PM 37.7071 -121.2298 205° Southwest 352 405 11,100 -273 Level FlightAware ADS-B (KSAC)
Mon 03:51:51 PM 37.6388 -121.2700 205° Southwest 352 405 10,800  Descending FlightAware ADS-B
Mon 03:52:05 PM 37.6335 -121.2732 205° Southwest 352 405 11,100  Climbing FlightAware ADS-B (KSAC)
Mon 03:52:22 PM 37.5926 -121.2970 205° Southwest 356 410 10,800  Descending FlightAware ADS-B
Mon 03:52:45 PM 37.5693 -121.3110 205° Southwest 358 412 11,100  Climbing FlightAware ADS-B (KSAC)
Mon 03:52:53 PM 37.5459 -121.3250 205° Southwest 362 417 10,800 -462 Descending FlightAware ADS-B
Mon 03:53:24 PM 37.4991 -121.3520 205° Southwest 353 406 10,800 563 Level FlightAware ADS-B
Mon 03:53:25 PM 37.5114 -121.3450 205° Southwest 356 410 11,100  Climbing FlightAware ADS-B (KSAC)
Mon 03:53:55 PM 37.4548 -121.3780 205° Southwest 340 391 10,800 -1,161 Descending FlightAware ADS-B
Mon 03:54:27 PM 37.4128 -121.4030 205° Southwest 331 381 9,900 -1,500 Descending FlightAware ADS-B
Mon 03:54:47 PM 37.3897 -121.4170 205° Southwest 269 310 9,500 -1,297 Descending FlightAware ADS-B
Mon 03:55:04 PM 37.3708 -121.4280 205° Southwest 258 297 9,100 -1,500 Descending FlightAware ADS-B
Mon 03:55:19 PM 37.3540 -121.4370 205° Southwest 256 295 8,700 -1,636 Descending FlightAware ADS-B
Mon 03:55:59 PM 37.3124 -121.4630 205° Southwest 260 299 7,600 -1,592 Descending FlightAware ADS-B
Mon 03:56:08 PM 37.3055 -121.4710 224° Southwest 225 259 7,400 -1,429 Descending FlightAware ADS-B
Mon 03:56:20 PM 37.2973 -121.4830 231° Southwest 225 259 7,100 -1,500 Descending FlightAware ADS-B
Mon 03:56:24 PM 37.2940 -121.4860 220° Southwest 223 257 7,000 -1,500 Descending FlightAware ADS-B
Mon 03:56:28 PM 37.2905 -121.4890 211° Southwest 223 257 6,900 -1,500 Descending FlightAware ADS-B
Mon 03:56:36 PM 37.2827 -121.4930 204° Southwest 223 257 6,700 -1,500 Descending FlightAware ADS-B
Mon 03:56:56 PM 37.2641 -121.5030 204° Southwest 222 255 6,200 -1,333 Descending FlightAware ADS-B
Mon 03:57:12 PM 37.2490 -121.5120 204° Southwest 221 254 5,900 -1,000 Descending FlightAware ADS-B
Mon 03:57:20 PM 37.2420 -121.5160 209° Southwest 218 251 5,800 -429 Descending FlightAware ADS-B
Mon 03:57:26 PM 37.2365 -121.5210 214° Southwest 215 247 5,800  Level FlightAware ADS-B
Mon 03:57:43 PM 37.2221 -121.5330 214° Southwest 222 255 5,800  Level FlightAware ADS-B
Mon 03:58:05 PM 37.2034 -121.5490 214° Southwest 224 258 5,800  Level FlightAware ADS-B
Mon 03:58:21 PM 37.1898 -121.5600 214° Southwest 221 254 5,800  Level FlightAware ADS-B
Mon 03:58:37 PM 37.1768 -121.5710 214° Southwest 215 247 5,800  Level FlightAware ADS-B
Mon 03:58:48 PM 37.1681 -121.5790 220° Southwest 213 245 5,800  Level FlightAware ADS-B
Mon 03:58:54 PM 37.1646 -121.5860 238° Southwest 214 246 5,800 -600 Level FlightAware ADS-B
Mon 03:58:58 PM 37.1631 -121.5900 250° West 214 246 5,700 -857 Descending FlightAware ADS-B
Mon 03:59:01 PM 37.1624 -121.5940 257° West 215 247 5,700 -857 Level FlightAware ADS-B
Mon 03:59:05 PM 37.1618 -121.5990 262° West 216 249 5,600 -947 Descending FlightAware ADS-B
Mon 03:59:20 PM 37.1605 -121.6180 265° West 218 251 5,400 -968 Descending FlightAware ADS-B
Mon 03:59:36 PM 37.1592 -121.6370 265° West 218 251 5,100 -968 Descending FlightAware ADS-B
Mon 03:59:51 PM 37.1579 -121.6570 265° West 217 250 4,900 -581 Descending FlightAware ADS-B
Mon 04:00:07 PM 37.1566 -121.6760 265° West 215 247 4,800 -207 Descending FlightAware ADS-B
Mon 04:00:20 PM 37.1553 -121.6930 266° West 213 245 4,800  Level FlightAware ADS-B
Mon 04:00:25 PM 37.1554 -121.6980 272° West 212 244 4,800  Level FlightAware ADS-B
Mon 04:00:30 PM 37.1564 -121.7050 284° West 212 244 4,800  Level FlightAware ADS-B
Mon 04:00:34 PM 37.1582 -121.7100 296° West 212 244 4,800  Level FlightAware ADS-B
Mon 04:00:39 PM 37.1606 -121.7140 305° West 212 244 4,800  Level FlightAware ADS-B
Mon 04:00:42 PM 37.1630 -121.7180 313° West 212 244 4,800  Level FlightAware ADS-B
Mon 04:00:46 PM 37.1655 -121.7210 317° Northwest 213 245 4,800 -750 Level FlightAware ADS-B
Mon 04:00:50 PM 37.1688 -121.7240 322° Northwest 214 246 4,700 -1,091 Descending FlightAware ADS-B
Mon 04:00:57 PM 37.1741 -121.7290 325° Northwest 215 247 4,600 -1,043 Descending FlightAware ADS-B
Mon 04:01:13 PM 37.1873 -121.7400 326° Northwest 213 245 4,300 -1,364 Descending FlightAware ADS-B
Mon 04:01:19 PM 37.1927 -121.7450 325° Northwest 213 245 4,100 -1,385 Descending FlightAware ADS-B
Mon 04:01:26 PM 37.1981 -121.7500 321° Northwest 215 247 4,000 -1,250 Descending FlightAware ADS-B
Mon 04:01:43 PM 37.2104 -121.7630 319° Northwest 213 245 3,600 -1,313 Descending FlightAware ADS-B
Mon 04:01:58 PM 37.2216 -121.7750 318° Northwest 210 242 3,300 -1,125 Descending FlightAware ADS-B
Mon 04:02:15 PM 37.2341 -121.7890 318° Northwest 207 238 3,000 -1,091 Descending FlightAware ADS-B
Mon 04:02:31 PM 37.2454 -121.8020 319° Northwest 204 235 2,700 -1,059 Descending FlightAware ADS-B
Mon 04:02:49 PM 37.2576 -121.8150 320° Northwest 188 216 2,400 -783 Descending FlightAware ADS-B
Mon 04:02:54 PM 37.2056 -121.7579 319° Northwest 203 234 2,400 -1,000 Level FlightAware ADS-B (KMIC)
Mon 04:03:01 PM 37.2658 -121.8240 319° Northwest 174 200 2,200 -1,043 Descending FlightAware ADS-B
Mon 04:03:17 PM 37.2748 -121.8340 319° Northwest 169 194 2,000 -774 Descending FlightAware ADS-B
Mon 04:03:32 PM 37.2838 -121.8440 319° Northwest 169 194 1,800 -857 Descending FlightAware ADS-B
Mon 04:03:45 PM 37.2918 -121.8520 319° Northwest 167 192 1,600 -828 Descending FlightAware ADS-B
Mon 04:04:01 PM 37.3006 -121.8620 319° Northwest 150 173 1,400 -938 Descending FlightAware ADS-B
Mon 04:04:17 PM 37.3088 -121.8710 319° Northwest 150 173 1,100 -968 Descending FlightAware ADS-B
Mon 04:04:32 PM 37.3168 -121.8800 319° Northwest 147 169 900 -667 Descending FlightAware ADS-B
Mon 04:04:44 PM 37.3226 -121.8859 319° Northwest 145 167 800 -600 Descending FlightAware ADS-B (KMIC)
Mon 04:05:02 PM 37.3318 -121.8960 319° Northwest 144 166 600 -828 Descending FlightAware ADS-B
Mon 04:05:13 PM 37.3349 -121.8996 319° Northwest 137 158 400 -643 Descending FlightAware ADS-B (KMIC)
Mon 04:05:30 PM 37.3441 -121.9096 319° Northwest 137 158 300 -353 Descending FlightAware ADS-B (KMIC)

Login

Don't have an account? Register now (free) for customized features, flight alerts, and more!